Time;durP1;ratioP1;P1;durP2;ratioP2;P2;SDS_P1;SDS_P2;PMS_P1;PMS_P2;Temp;Humidity;BMP_temperature;BMP_pressure;BME280_temperature;BME280_humidity;BME280_pressure;Samples;Min_cycle;Max_cycle;Signal;HPM_P1;HPM_P2
2022/01/08 00:00:39;;;;;;;7.65;6.07;;;;;;;4.76;100.00;98619.56;5112898;28;20275;-76
2022/01/08 00:03:06;;;;;;;6.10;5.50;;;;;;;4.67;100.00;98614.69;5112631;28;20241;-76
2022/01/08 00:05:33;;;;;;;5.40;4.90;;;;;;;4.60;100.00;98607.94;5113420;28;20267;-77
2022/01/08 00:07:59;;;;;;;7.85;5.50;;;;;;;4.55;100.00;98599.31;5113833;28;20598;-77
2022/01/08 00:10:26;;;;;;;8.98;5.22;;;;;;;4.35;100.00;98595.81;5116860;28;20283;-77
2022/01/08 00:12:53;;;;;;;6.10;5.22;;;;;;;4.43;100.00;98599.91;5116778;28;20192;-76
2022/01/08 00:15:22;;;;;;;4.97;4.10;;;;;;;4.52;100.00;98588.78;5116896;28;20279;-76
2022/01/08 00:17:48;;;;;;;6.35;5.25;;;;;;;4.64;100.00;98582.88;5116398;28;20229;-76
2022/01/08 00:20:16;;;;;;;7.55;4.35;;;;;;;4.67;100.00;98585.38;5116867;28;20227;-77
2022/01/08 00:22:43;;;;;;;6.60;4.70;;;;;;;4.67;100.00;98571.19;5116912;28;20273;-77
2022/01/08 00:25:10;;;;;;;7.00;4.57;;;;;;;4.55;100.00;98567.34;5117050;28;20270;-76
2022/01/08 00:27:38;;;;;;;4.80;4.28;;;;;;;4.45;100.00;98568.72;5116646;28;20688;-77
2022/01/08 00:30:05;;;;;;;5.30;4.72;;;;;;;4.52;100.00;98555.03;5116291;28;20220;-76
2022/01/08 00:32:34;;;;;;;4.97;4.38;;;;;;;4.55;100.00;98546.88;5116309;28;20204;-76
2022/01/08 00:35:00;;;;;;;4.85;4.20;;;;;;;4.49;100.00;98548.97;5117164;28;20284;-76
2022/01/08 00:37:27;;;;;;;6.20;4.15;;;;;;;4.45;100.00;98507.41;5117017;28;20184;-76
2022/01/08 00:39:54;;;;;;;6.50;4.35;;;;;;;4.43;100.00;98544.78;5117182;28;20575;-76
2022/01/08 00:42:21;;;;;;;4.13;3.72;;;;;;;4.56;100.00;98547.72;5116486;28;20704;-76
2022/01/08 00:44:47;;;;;;;4.78;4.07;;;;;;;4.60;100.00;98538.63;5116667;28;20642;-76
2022/01/08 00:47:14;;;;;;;3.95;3.55;;;;;;;4.58;100.00;98532.50;5116988;28;20224;-76
2022/01/08 00:49:43;;;;;;;4.80;3.50;;;;;;;4.68;100.00;98536.44;5116773;28;20628;-77
2022/01/08 00:52:10;;;;;;;4.45;3.80;;;;;;;4.59;100.00;98536.91;5116816;27;20283;-76
2022/01/08 00:54:38;;;;;;;3.80;3.30;;;;;;;4.60;100.00;98528.81;5116843;28;20609;-76
2022/01/08 00:57:05;;;;;;;3.30;3.00;;;;;;;4.65;100.00;98530.41;5116774;28;20192;-76
2022/01/08 00:59:32;;;;;;;4.60;3.63;;;;;;;4.63;100.00;98525.13;5115998;28;20225;-76
2022/01/08 01:01:59;;;;;;;3.35;3.05;;;;;;;4.67;100.00;98523.19;5115911;28;20223;-75
2022/01/08 01:04:26;;;;;;;3.50;2.65;;;;;;;4.79;100.00;98522.53;5116336;28;20401;-76
2022/01/08 01:06:54;;;;;;;6.50;2.60;;;;;;;4.53;100.00;98510.56;5116117;28;20215;-76
2022/01/08 01:09:20;;;;;;;2.78;2.28;;;;;;;4.60;100.00;98518.16;5116530;28;20595;-75
2022/01/08 01:11:47;;;;;;;2.65;2.40;;;;;;;4.73;100.00;98526.41;5116058;28;20191;-75
2022/01/08 01:14:14;;;;;;;3.50;2.67;;;;;;;4.70;100.00;98518.53;5116300;28;20283;-76
2022/01/08 01:16:41;;;;;;;2.50;2.30;;;;;;;4.65;100.00;98517.94;5115889;28;20220;-76
2022/01/08 01:19:07;;;;;;;2.72;2.50;;;;;;;4.39;100.00;98514.78;5115882;28;20223;-76
2022/01/08 01:21:34;;;;;;;2.38;2.15;;;;;;;4.52;100.00;98503.50;5115745;28;20192;-76
2022/01/08 01:24:09;;;;;;;2.30;2.10;;;;;;;4.52;100.00;98511.50;5116029;28;20273;-76
2022/01/08 01:26:37;;;;;;;2.60;2.40;;;;;;;4.56;100.00;98516.59;5116223;28;20236;-76
2022/01/08 01:29:24;;;;;;;2.38;2.17;;;;;;;4.57;100.00;98518.31;5115788;28;20283;-76
2022/01/08 01:43:18;;;;;;;2.95;2.38;;;;;;;4.36;100.00;98522.94;5115768;28;20191;-77
2022/01/08 01:48:26;;;;;;;3.78;3.00;;;;;;;4.10;100.00;98526.03;5093865;28;20568;-76
2022/01/08 01:50:53;;;;;;;2.92;2.70;;;;;;;4.18;100.00;98521.16;5115605;28;20622;-76
2022/01/08 01:53:20;;;;;;;2.80;2.50;;;;;;;4.16;100.00;98515.94;5114575;28;20184;-76
2022/01/08 01:55:49;;;;;;;4.90;3.30;;;;;;;4.05;100.00;98523.59;5115306;28;20504;-76
2022/01/08 01:58:17;;;;;;;3.28;2.55;;;;;;;4.11;100.00;98531.25;5115256;28;20191;-76
2022/01/08 02:00:44;;;;;;;2.42;2.22;;;;;;;4.13;100.00;98524.06;5115356;28;20271;-76
2022/01/08 02:03:11;;;;;;;2.83;2.35;;;;;;;4.10;100.00;98521.56;5114742;28;20216;-76
2022/01/08 02:05:37;;;;;;;2.65;2.45;;;;;;;4.17;100.00;98511.47;5115195;28;20192;-76
2022/01/08 02:08:04;;;;;;;2.58;2.38;;;;;;;4.08;100.00;98519.91;5114858;28;20543;-77
2022/01/08 02:10:31;;;;;;;2.97;2.72;;;;;;;4.06;100.00;98529.78;5114994;28;20228;-77
2022/01/08 02:13:00;;;;;;;3.03;2.75;;;;;;;3.93;100.00;98529.50;5115209;28;20541;-76
2022/01/08 02:15:27;;;;;;;3.60;2.85;;;;;;;3.95;100.00;98539.13;5106881;28;20214;-76
2022/01/08 02:17:53;;;;;;;2.95;2.65;;;;;;;3.84;100.00;98538.78;5114881;28;20238;-76
2022/01/08 02:20:21;;;;;;;3.13;2.90;;;;;;;3.71;100.00;98554.50;5114765;28;20577;-77
2022/01/08 02:22:48;;;;;;;3.28;2.97;;;;;;;3.59;100.00;98552.38;5115084;28;20283;-76
2022/01/08 02:25:15;;;;;;;3.65;3.20;;;;;;;3.69;100.00;98559.03;5114027;28;20291;-76
2022/01/08 02:27:41;;;;;;;2.95;2.65;;;;;;;3.62;100.00;98565.56;5114899;28;20184;-76
2022/01/08 02:30:08;;;;;;;4.43;2.70;;;;;;;3.70;100.00;98581.19;5114311;28;20613;-77
2022/01/08 02:32:35;;;;;;;6.22;2.90;;;;;;;3.53;100.00;98585.50;5114716;28;20176;-76
2022/01/08 02:35:02;;;;;;;2.92;2.72;;;;;;;3.57;100.00;98593.31;5114684;28;20227;-76
2022/01/08 02:37:31;;;;;;;3.65;3.17;;;;;;;3.43;100.00;98602.78;5114254;28;20275;-76
2022/01/08 02:39:58;;;;;;;3.30;3.00;;;;;;;3.37;100.00;98596.88;5114205;28;20248;-76
2022/01/08 02:42:29;;;;;;;3.25;2.50;;;;;;;3.42;100.00;98594.91;5114093;28;20180;-76
2022/01/08 02:44:56;;;;;;;2.72;2.40;;;;;;;3.41;100.00;98599.34;5114528;28;20204;-77
2022/01/08 02:47:23;;;;;;;3.00;2.80;;;;;;;3.50;100.00;98606.03;5113836;28;20601;-77
2022/01/08 02:49:52;;;;;;;2.92;2.70;;;;;;;3.37;100.00;98643.00;5113776;28;20195;-77
2022/01/08 02:52:19;;;;;;;3.70;3.30;;;;;;;3.32;100.00;98647.63;5114214;28;20192;-76
2022/01/08 02:54:47;;;;;;;2.80;2.25;;;;;;;3.40;100.00;98660.63;5114015;28;20192;-77
2022/01/08 02:57:14;;;;;;;2.92;2.50;;;;;;;3.32;100.00;98658.28;5106793;28;20521;-78
2022/01/08 02:59:41;;;;;;;2.58;2.38;;;;;;;3.19;100.00;98673.03;5114292;28;20713;-78
2022/01/08 03:02:07;;;;;;;2.75;2.55;;;;;;;3.18;100.00;98669.53;5114218;28;20215;-77
2022/01/08 03:04:35;;;;;;;2.55;1.80;;;;;;;3.12;100.00;98681.31;5113644;28;20242;-77
2022/01/08 03:07:01;;;;;;;1.95;1.75;;;;;;;3.10;100.00;98701.78;5113602;28;20272;-77
2022/01/08 03:09:29;;;;;;;2.72;1.98;;;;;;;2.99;100.00;98706.69;5113438;28;20192;-77
2022/01/08 03:11:57;;;;;;;2.00;1.80;;;;;;;2.86;100.00;98718.75;5113886;28;20653;-76
2022/01/08 03:14:24;;;;;;;1.60;1.50;;;;;;;2.89;100.00;98738.13;5114010;28;20245;-76
2022/01/08 03:16:51;;;;;;;1.60;1.50;;;;;;;2.81;100.00;98744.66;5113816;28;20271;-77
2022/01/08 03:19:17;;;;;;;1.55;1.45;;;;;;;2.81;100.00;98749.97;5113576;28;20226;-77
2022/01/08 03:21:51;;;;;;;1.50;1.20;;;;;;;2.74;100.00;98762.66;5113289;28;20188;-77
2022/01/08 03:24:25;;;;;;;1.73;1.30;;;;;;;2.75;100.00;98771.47;5113498;28;20199;-76
2022/01/08 03:26:52;;;;;;;1.55;1.27;;;;;;;2.71;100.00;98774.28;5113183;28;20720;-76
2022/01/08 03:29:21;;;;;;;1.50;1.40;;;;;;;2.64;100.00;98783.38;5113656;28;20239;-76
2022/01/08 03:31:47;;;;;;;1.40;1.10;;;;;;;2.70;100.00;98799.09;5113178;28;20252;-76
2022/01/08 03:34:16;;;;;;;1.25;1.15;;;;;;;2.72;100.00;98815.00;5113438;28;20190;-76
2022/01/08 03:36:42;;;;;;;1.40;1.25;;;;;;;2.68;100.00;98813.38;5113329;28;20556;-76
2022/01/08 03:39:09;;;;;;;1.05;0.90;;;;;;;2.72;100.00;98815.88;5113350;28;20277;-76
2022/01/08 03:41:36;;;;;;;1.00;0.80;;;;;;;2.67;100.00;98819.63;5113356;28;20200;-76
2022/01/08 03:44:03;;;;;;;1.00;0.90;;;;;;;2.75;100.00;98832.63;5116387;28;20215;-76
2022/01/08 03:46:34;;;;;;;1.13;1.00;;;;;;;2.70;100.00;98846.97;5117769;28;20216;-76
2022/01/08 03:49:24;;;;;;;1.52;1.00;;;;;;;2.80;100.00;98849.25;5117538;28;20223;-76
2022/01/08 03:51:53;;;;;;;1.45;0.95;;;;;;;2.72;100.00;98850.41;5117480;28;20200;-76
2022/01/08 03:54:20;;;;;;;0.90;0.60;;;;;;;2.71;100.00;98858.44;5117792;28;20188;-76
2022/01/08 03:56:47;;;;;;;0.90;0.80;;;;;;;2.75;100.00;98867.19;5119028;27;20225;-76
2022/01/08 03:59:13;;;;;;;2.22;0.90;;;;;;;2.80;100.00;98882.03;5117284;28;20192;-76
2022/01/08 04:01:41;;;;;;;1.10;0.90;;;;;;;2.74;100.00;98886.69;5117225;28;20657;-76
2022/01/08 04:04:08;;;;;;;1.40;1.10;;;;;;;2.89;100.00;98888.78;5117544;28;20676;-76
2022/01/08 04:06:35;;;;;;;1.67;0.90;;;;;;;2.92;100.00;98889.53;5117174;28;20186;-76
2022/01/08 04:09:02;;;;;;;1.20;1.10;;;;;;;2.86;100.00;98894.22;5117046;28;20287;-77
2022/01/08 04:11:29;;;;;;;1.42;1.30;;;;;;;2.83;100.00;98903.19;5116841;28;20187;-76
2022/01/08 04:13:56;;;;;;;1.30;1.20;;;;;;;2.81;100.00;98913.03;5117416;28;20547;-76
2022/01/08 04:16:28;;;;;;;3.08;2.30;;;;;;;2.90;100.00;98911.81;5116785;28;20191;-76
2022/01/08 04:18:57;;;;;;;1.63;1.48;;;;;;;2.86;100.00;98934.97;5110501;28;20200;-76
2022/01/08 04:21:58;;;;;;;4.57;1.92;;;;;;;2.89;100.00;98941.97;5116555;28;20275;-76
2022/01/08 04:24:24;;;;;;;3.28;2.25;;;;;;;2.91;100.00;98943.63;5113904;28;20214;-77
2022/01/08 04:26:51;;;;;;;5.10;2.40;;;;;;;2.96;100.00;98942.59;5117316;28;20196;-76
2022/01/08 04:29:18;;;;;;;3.70;2.33;;;;;;;2.90;100.00;98947.25;5116573;28;20234;-76
2022/01/08 04:31:44;;;;;;;3.38;2.40;;;;;;;2.93;100.00;98952.44;5116111;28;20286;-77
2022/01/08 04:34:12;;;;;;;3.17;2.40;;;;;;;2.94;100.00;98953.31;5116592;28;20214;-77
2022/01/08 04:36:39;;;;;;;4.55;3.47;;;;;;;2.99;100.00;98969.97;5116985;28;20251;-76
2022/01/08 04:39:06;;;;;;;3.50;2.67;;;;;;;2.99;100.00;98972.63;5117128;28;20707;-77
2022/01/08 04:41:32;;;;;;;3.97;3.08;;;;;;;2.98;100.00;98975.34;5116655;28;20299;-77
2022/01/08 04:43:59;;;;;;;5.82;3.00;;;;;;;2.99;100.00;98985.94;5116738;28;20271;-77
2022/01/08 04:46:26;;;;;;;5.85;3.20;;;;;;;2.99;100.00;98985.94;5116435;28;20227;-77
2022/01/08 04:48:52;;;;;;;4.68;3.00;;;;;;;3.12;100.00;98991.63;5116773;28;20661;-77
2022/01/08 04:51:20;;;;;;;9.07;3.95;;;;;;;3.12;100.00;98989.88;5115860;28;20675;-77
2022/01/08 04:53:47;;;;;;;5.25;3.58;;;;;;;3.07;100.00;98999.78;5116477;28;20204;-77
2022/01/08 04:56:13;;;;;;;5.50;3.80;;;;;;;3.15;100.00;98996.00;5116079;28;20202;-77
2022/01/08 04:58:40;;;;;;;6.80;4.63;;;;;;;3.10;100.00;98996.16;5116264;28;20184;-77
2022/01/08 05:01:12;;;;;;;7.55;3.95;;;;;;;3.09;100.00;98992.63;5116149;28;20188;-77
2022/01/08 05:03:39;;;;;;;8.75;4.00;;;;;;;3.07;100.00;99010.44;5116406;28;20279;-77
2022/01/08 05:06:06;;;;;;;5.03;3.45;;;;;;;3.15;100.00;99019.94;5116321;28;20277;-77
2022/01/08 05:08:34;;;;;;;6.25;3.60;;;;;;;3.15;100.00;99019.94;5116251;28;20230;-77
2022/01/08 05:11:01;;;;;;;5.70;4.00;;;;;;;3.15;100.00;99027.91;5116034;28;20196;-77
2022/01/08 05:13:27;;;;;;;5.93;3.50;;;;;;;3.05;100.00;99027.38;5116099;28;20192;-78
2022/01/08 05:15:54;;;;;;;7.22;3.75;;;;;;;3.04;100.00;99037.16;5116213;28;20708;-78
2022/01/08 05:18:22;;;;;;;4.53;2.95;;;;;;;3.12;100.00;99029.78;5116001;28;20227;-77
2022/01/08 05:20:56;;;;;;;4.65;3.03;;;;;;;3.03;100.00;99039.84;5116099;28;20302;-77
2022/01/08 05:23:22;;;;;;;6.93;3.40;;;;;;;3.02;100.00;99046.13;5115585;28;20267;-77
2022/01/08 05:25:50;;;;;;;5.82;3.20;;;;;;;3.02;100.00;99048.78;5115973;28;20634;-77
2022/01/08 05:28:17;;;;;;;4.20;3.40;;;;;;;2.98;100.00;99060.44;5116059;28;20195;-77
2022/01/08 05:30:44;;;;;;;7.22;4.07;;;;;;;3.01;100.00;99068.28;5115869;28;20279;-77
2022/01/08 05:33:10;;;;;;;5.45;3.78;;;;;;;2.87;100.00;99074.09;5115785;28;20275;-77
2022/01/08 05:35:37;;;;;;;5.38;4.10;;;;;;;2.92;100.00;99075.69;5115886;28;20675;-77
2022/01/08 05:38:04;;;;;;;4.75;3.70;;;;;;;2.96;100.00;99081.75;5115408;28;20287;-77
2022/01/08 05:40:31;;;;;;;6.00;3.70;;;;;;;2.89;100.00;99082.91;5116136;28;20638;-77
2022/01/08 05:42:59;;;;;;;5.50;3.50;;;;;;;2.86;100.00;99083.88;5115679;28;20202;-77
2022/01/08 05:45:26;;;;;;;4.80;3.80;;;;;;;2.92;100.00;99096.97;5108353;28;20221;-77
2022/01/08 05:47:52;;;;;;;4.82;3.83;;;;;;;2.72;100.00;99097.66;5115343;28;20703;-77
2022/01/08 05:50:19;;;;;;;3.97;3.58;;;;;;;2.80;100.00;99102.69;5115326;28;20646;-76
2022/01/08 05:52:48;;;;;;;7.07;4.78;;;;;;;2.65;100.00;99108.56;5115320;28;20204;-77
2022/01/08 05:55:15;;;;;;;8.25;3.72;;;;;;;2.58;100.00;99110.56;5114890;28;20184;-77
2022/01/08 05:57:42;;;;;;;6.47;4.35;;;;;;;2.74;100.00;99112.66;5115678;28;20191;-77
2022/01/08 06:00:11;;;;;;;8.43;3.50;;;;;;;2.62;100.00;99117.50;5114723;28;20200;-77
2022/01/08 06:02:38;;;;;;;7.15;4.30;;;;;;;2.52;100.00;99123.19;5114817;28;20271;-77
2022/01/08 06:05:06;;;;;;;7.18;4.07;;;;;;;2.44;100.00;99132.28;5114330;28;20318;-77
2022/01/08 06:07:33;;;;;;;8.15;4.00;;;;;;;2.52;100.00;99137.31;5114343;28;20275;-78
2022/01/08 06:10:00;;;;;;;5.95;4.13;;;;;;;2.42;100.00;99133.22;5114891;28;20288;-77
2022/01/08 06:12:27;;;;;;;8.05;4.40;;;;;;;2.47;100.00;99142.78;5114857;28;20609;-77
2022/01/08 06:14:54;;;;;;;8.20;4.07;;;;;;;2.62;100.00;99148.50;5114777;28;20210;-77
2022/01/08 06:17:22;;;;;;;8.32;4.43;;;;;;;2.68;100.00;99148.31;5114623;28;20219;-77
2022/01/08 06:19:48;;;;;;;7.28;4.28;;;;;;;2.78;100.00;99149.78;5114387;28;20278;-77
2022/01/08 06:22:16;;;;;;;7.22;4.18;;;;;;;2.62;100.00;99160.03;5114931;28;20245;-77
2022/01/08 06:24:43;;;;;;;8.68;5.00;;;;;;;2.49;100.00;99164.88;5114319;28;20689;-77
2022/01/08 06:27:10;;;;;;;10.30;4.30;;;;;;;2.66;100.00;99174.09;5114695;28;20188;-77
2022/01/08 06:29:36;;;;;;;11.75;5.38;;;;;;;2.59;100.00;99172.53;5114606;28;20230;-77
2022/01/08 06:32:03;;;;;;;7.20;4.53;;;;;;;2.49;100.00;99169.31;5114011;28;20188;-77
2022/01/08 06:34:31;;;;;;;7.25;5.00;;;;;;;2.63;100.00;99169.75;5114780;28;20188;-77
2022/01/08 06:36:58;;;;;;;6.90;4.53;;;;;;;2.61;100.00;99170.72;5113887;28;20264;-77
2022/01/08 06:39:24;;;;;;;5.68;4.70;;;;;;;2.69;100.00;99169.53;5114938;28;20286;-77
2022/01/08 06:41:51;;;;;;;8.90;4.70;;;;;;;2.68;100.00;99181.09;5114256;28;20283;-77
2022/01/08 06:44:18;;;;;;;8.70;4.90;;;;;;;2.88;100.00;99187.53;5108126;28;20196;-78
2022/01/08 06:46:44;;;;;;;5.38;4.43;;;;;;;2.96;100.00;99193.44;5114263;28;20193;-77
2022/01/08 06:49:12;;;;;;;5.90;4.25;;;;;;;2.77;100.00;99187.88;5113926;28;20310;-74
2022/01/08 06:51:40;;;;;;;5.18;3.53;;;;;;;2.89;100.00;99191.94;5113626;28;20279;-78
2022/01/08 06:54:08;;;;;;;5.15;4.00;;;;;;;2.93;100.00;99198.88;5114439;28;20691;-78
2022/01/08 06:56:35;;;;;;;5.78;4.20;;;;;;;3.18;100.00;99198.94;5113601;28;20544;-78
2022/01/08 06:59:01;;;;;;;8.02;4.03;;;;;;;3.13;100.00;99204.41;5109286;28;20232;-75
2022/01/08 07:01:28;;;;;;;6.57;3.78;;;;;;;3.10;100.00;99203.66;5113531;28;20212;-75
2022/01/08 07:03:56;;;;;;;5.25;3.22;;;;;;;2.81;100.00;99210.81;5114510;28;20188;-76
2022/01/08 07:06:23;;;;;;;4.75;3.70;;;;;;;3.08;100.00;99226.78;5113616;28;20239;-76
2022/01/08 07:08:51;;;;;;;7.45;3.90;;;;;;;3.09;100.00;99228.50;5113494;28;20185;-76
2022/01/08 07:11:17;;;;;;;5.88;3.20;;;;;;;3.08;100.00;99238.28;5113901;28;20259;-76
2022/01/08 07:13:44;;;;;;;3.30;2.92;;;;;;;3.48;100.00;99250.25;5113915;28;20202;-76
2022/01/08 07:16:11;;;;;;;7.10;3.63;;;;;;;3.60;100.00;99261.38;5113633;28;20184;-76
2022/01/08 07:18:38;;;;;;;5.25;3.30;;;;;;;3.71;100.00;99264.53;5114279;27;20196;-76
2022/01/08 07:21:05;;;;;;;6.75;3.15;;;;;;;3.41;100.00;99263.78;5113460;28;20276;-76
2022/01/08 07:23:31;;;;;;;7.28;4.90;;;;;;;3.47;100.00;99276.91;5119009;27;20197;-76
2022/01/08 07:25:59;;;;;;;6.35;3.35;;;;;;;3.42;100.00;99271.72;5113142;28;20303;-76
2022/01/08 07:28:26;;;;;;;5.38;3.17;;;;;;;3.36;100.00;99274.59;5113486;28;20190;-76
2022/01/08 07:30:53;;;;;;;5.35;3.10;;;;;;;3.43;100.00;99273.47;5113654;28;20210;-76
2022/01/08 07:33:19;;;;;;;3.55;2.80;;;;;;;3.17;100.00;99271.69;5113492;28;20287;-77
2022/01/08 07:35:46;;;;;;;5.60;3.08;;;;;;;3.22;100.00;99267.09;5112973;28;20266;-77
2022/01/08 07:38:13;;;;;;;4.28;3.28;;;;;;;3.05;100.00;99272.97;5113303;28;20187;-76
2022/01/08 07:40:39;;;;;;;4.65;3.13;;;;;;;3.22;100.00;99271.53;5113477;28;20590;-77
2022/01/08 07:43:07;;;;;;;5.80;3.10;;;;;;;3.46;100.00;99277.81;5107566;28;20200;-77
2022/01/08 07:45:34;;;;;;;8.95;6.45;;;;;;;3.47;100.00;99283.09;5110638;28;20310;-77
2022/01/08 07:48:01;;;;;;;4.32;3.45;;;;;;;3.57;100.00;99288.09;5111810;28;20226;-76
2022/01/08 07:50:28;;;;;;;4.22;3.45;;;;;;;3.52;100.00;99281.13;5111106;28;20220;-77
2022/01/08 07:52:54;;;;;;;6.80;4.03;;;;;;;3.50;100.00;99274.13;5113928;28;20187;-77
2022/01/08 07:55:21;;;;;;;5.30;3.45;;;;;;;3.64;100.00;99282.53;5112829;28;20198;-77
2022/01/08 07:57:48;;;;;;;5.20;3.28;;;;;;;3.76;100.00;99279.41;5106863;28;20200;-76
2022/01/08 08:00:17;;;;;;;8.73;3.53;;;;;;;3.76;100.00;99286.53;5113386;28;20536;-76
2022/01/08 08:02:43;;;;;;;4.25;3.38;;;;;;;3.98;100.00;99294.63;5113686;28;20202;-77
2022/01/08 08:05:13;;;;;;;5.13;3.35;;;;;;;4.02;100.00;99296.25;5113518;28;20216;-77
2022/01/08 08:07:40;;;;;;;5.82;3.58;;;;;;;4.08;100.00;99297.84;5105379;28;20271;-78
2022/01/08 08:10:10;;;;;;;7.60;3.85;;;;;;;4.04;100.00;99299.72;5109423;28;20277;-78
2022/01/08 08:12:36;;;;;;;7.22;4.20;;;;;;;4.07;100.00;99296.97;5113145;28;20194;-77
2022/01/08 08:15:05;;;;;;;7.05;3.90;;;;;;;4.17;100.00;99297.50;5113260;28;20275;-77
2022/01/08 08:17:34;;;;;;;5.47;3.58;;;;;;;4.07;100.00;99296.06;5113306;28;20700;-77
2022/01/08 08:20:00;;;;;;;4.15;3.45;;;;;;;4.14;100.00;99292.28;5113038;28;20196;-78
2022/01/08 08:22:27;;;;;;;7.07;4.00;;;;;;;4.27;100.00;99293.53;5113022;28;20188;-78
2022/01/08 08:24:54;;;;;;;7.50;3.50;;;;;;;4.24;100.00;99296.34;5113276;28;20196;-78
2022/01/08 08:27:20;;;;;;;7.50;4.00;;;;;;;4.00;100.00;99299.91;5112891;28;20197;-78
2022/01/08 08:29:48;;;;;;;9.15;4.68;;;;;;;4.22;100.00;99300.84;5115702;28;20618;-79
2022/01/08 08:32:15;;;;;;;7.72;4.93;;;;;;;4.45;100.00;99302.66;5117706;28;20184;-80
2022/01/08 08:34:43;;;;;;;6.25;4.00;;;;;;;4.46;100.00;99298.22;5115549;28;20229;-80
2022/01/08 08:37:10;;;;;;;5.65;3.70;;;;;;;4.43;100.00;99298.31;5115173;28;20302;-80
2022/01/08 08:39:37;;;;;;;6.40;4.60;;;;;;;4.32;100.00;99288.03;5111496;27;20248;-79
2022/01/08 08:42:04;;;;;;;5.93;4.45;;;;;;;4.12;100.00;99297.66;5114923;28;20875;-80
2022/01/08 08:44:30;;;;;;;5.30;4.20;;;;;;;3.99;100.00;99317.69;5115382;28;20302;-80
2022/01/08 08:46:57;;;;;;;7.65;4.85;;;;;;;3.72;100.00;99311.53;5115285;28;20298;-81
2022/01/08 08:49:24;;;;;;;7.15;5.53;;;;;;;3.86;100.00;99314.56;5115387;28;20228;-80
2022/01/08 08:51:52;;;;;;;8.80;4.85;;;;;;;3.93;100.00;99304.56;5115056;28;20192;-81
2022/01/08 08:54:18;;;;;;;5.82;4.50;;;;;;;3.79;100.00;99317.50;5114519;28;20306;-80
2022/01/08 08:56:45;;;;;;;8.52;4.28;;;;;;;3.74;100.00;99305.22;5114763;28;20275;-80
2022/01/08 08:59:12;;;;;;;9.25;5.00;;;;;;;3.70;100.00;99302.72;5112746;27;20286;-80
2022/01/08 09:01:39;;;;;;;7.43;5.55;;;;;;;3.71;100.00;99301.81;5113095;28;20208;-79
2022/01/08 09:04:06;;;;;;;9.40;4.50;;;;;;;3.71;100.00;99302.69;5114871;28;20194;-79
2022/01/08 09:06:33;;;;;;;5.03;4.00;;;;;;;3.74;100.00;99293.72;5114946;28;20637;-79
2022/01/08 09:09:01;;;;;;;7.63;5.47;;;;;;;3.97;100.00;99296.41;5107169;28;20189;-79
2022/01/08 09:11:29;;;;;;;10.20;4.65;;;;;;;3.95;100.00;99305.38;5094059;28;20232;-79
2022/01/08 09:13:55;;;;;;;8.18;4.57;;;;;;;4.18;100.00;99307.22;5094751;28;20274;-78
2022/01/08 09:16:22;;;;;;;8.60;4.82;;;;;;;4.29;100.00;99309.50;5094198;28;20236;-79
2022/01/08 09:18:49;;;;;;;10.27;4.95;;;;;;;4.21;100.00;99309.78;5095065;28;20966;-78
2022/01/08 09:21:16;;;;;;;10.45;6.68;;;;;;;4.43;100.00;99308.97;5094568;28;20224;-78
2022/01/08 09:23:42;;;;;;;6.90;4.50;;;;;;;4.18;100.00;99310.78;5094789;28;20275;-78
2022/01/08 09:26:11;;;;;;;6.45;4.03;;;;;;;4.27;100.00;99306.88;5094113;28;20205;-78
2022/01/08 09:28:38;;;;;;;8.75;4.50;;;;;;;4.29;100.00;99310.34;5094501;28;20230;-78
2022/01/08 09:31:04;;;;;;;5.22;4.55;;;;;;;4.35;100.00;99306.59;5094204;28;20201;-78
2022/01/08 09:33:32;;;;;;;7.90;5.13;;;;;;;4.47;100.00;99306.13;5094212;28;20279;-78
2022/01/08 09:35:59;;;;;;;7.28;4.90;;;;;;;4.50;99.97;99299.81;5094657;28;20200;-78
2022/01/08 09:38:26;;;;;;;8.75;4.40;;;;;;;4.48;99.33;99304.34;5093925;28;20201;-79
2022/01/08 09:40:53;;;;;;;5.20;4.43;;;;;;;4.50;98.39;99311.38;5092692;28;20729;-79
2022/01/08 09:43:21;;;;;;;6.53;5.70;;;;;;;4.51;100.00;99301.56;5094521;28;20304;-79
2022/01/08 09:45:48;;;;;;;8.82;4.75;;;;;;;4.67;100.00;99305.38;5093789;28;20671;-79
2022/01/08 09:48:15;;;;;;;7.25;5.03;;;;;;;4.84;98.68;99302.06;5114055;28;20580;-79
2022/01/08 09:50:42;;;;;;;6.10;4.18;;;;;;;4.68;97.38;99309.78;5114147;28;20283;-79
2022/01/08 09:53:09;;;;;;;8.68;4.72;;;;;;;4.75;98.64;99318.44;5114240;28;20557;-79
2022/01/08 09:55:36;;;;;;;8.00;4.20;;;;;;;4.54;97.64;99301.44;5114326;28;20274;-78
2022/01/08 09:58:03;;;;;;;6.10;5.05;;;;;;;4.71;98.12;99307.00;5113795;28;20206;-78
2022/01/08 10:00:32;;;;;;;12.13;4.60;;;;;;;4.66;98.41;99313.41;5114181;28;20188;-78
2022/01/08 10:03:14;;;;;;;6.47;4.43;;;;;;;4.47;100.00;99300.78;5113728;28;20200;-78
2022/01/08 10:05:45;;;;;;;6.30;4.68;;;;;;;4.44;100.00;99303.59;5113693;28;20219;-79
2022/01/08 10:08:13;;;;;;;11.27;5.60;;;;;;;4.53;100.00;99295.25;5112592;28;21166;-79
2022/01/08 10:10:40;;;;;;;5.93;4.53;;;;;;;4.41;100.00;99289.50;5114075;28;20204;-79
2022/01/08 10:13:07;;;;;;;7.80;4.93;;;;;;;4.65;100.00;99283.22;5113566;28;20290;-79
2022/01/08 10:18:23;;;;;;;8.52;4.63;;;;;;;4.44;99.56;99281.41;5113505;28;20183;-79
2022/01/08 10:20:50;;;;;;;4.57;4.15;;;;;;;4.64;98.74;99269.97;5113383;28;20279;-78
2022/01/08 10:23:19;;;;;;;8.32;6.75;;;;;;;4.57;99.15;99275.53;5113539;28;20239;-79
2022/01/08 10:26:04;;;;;;;7.07;5.22;;;;;;;4.45;100.00;99269.78;5113174;28;20181;-78
2022/01/08 10:28:36;;;;;;;10.50;6.00;;;;;;;4.52;100.00;99266.84;5113453;28;20279;-79
2022/01/08 10:31:16;;;;;;;6.70;5.05;;;;;;;4.68;100.00;99267.13;5113008;28;20286;-78
2022/01/08 10:33:44;;;;;;;6.57;5.40;;;;;;;4.59;100.00;99273.69;5113286;28;20202;-78
2022/01/08 10:36:12;;;;;;;6.72;4.70;;;;;;;4.48;100.00;99264.38;5113507;28;20538;-79
2022/01/08 10:38:39;;;;;;;9.48;5.40;;;;;;;4.48;100.00;99275.03;5099917;28;20269;-79
2022/01/08 10:41:14;;;;;;;6.20;4.25;;;;;;;4.57;100.00;99258.66;5093124;28;20214;-79
2022/01/08 10:43:41;;;;;;;5.82;4.57;;;;;;;4.35;100.00;99259.47;5092961;28;20249;-79
2022/01/08 10:46:15;;;;;;;8.30;5.80;;;;;;;4.74;100.00;99250.00;5092644;28;20319;-79
2022/01/08 10:48:47;;;;;;;7.10;4.10;;;;;;;4.84;99.18;99251.38;5092680;28;20256;-79
2022/01/08 10:51:17;;;;;;;6.28;4.18;;;;;;;5.00;98.79;99257.81;5092502;28;20234;-79
2022/01/08 10:54:10;;;;;;;6.53;4.45;;;;;;;5.16;97.27;99246.53;5092532;28;20272;-79
2022/01/08 10:56:40;;;;;;;6.20;4.32;;;;;;;5.25;93.79;99234.59;5092664;28;20220;-78
2022/01/08 10:59:14;;;;;;;9.25;4.95;;;;;;;5.58;93.93;99227.78;5093018;28;20285;-78
2022/01/08 11:01:45;;;;;;;8.57;4.65;;;;;;;5.76;92.97;99217.22;5092250;28;20200;-78
2022/01/08 11:04:14;;;;;;;4.43;3.70;;;;;;;5.77;90.31;99209.16;5092745;28;20220;-79
2022/01/08 11:06:52;;;;;;;5.53;3.80;;;;;;;5.85;89.70;99193.63;5092063;28;20277;-78
2022/01/08 11:09:19;;;;;;;7.20;4.10;;;;;;;5.95;90.54;99187.94;5092457;28;20600;-78
2022/01/08 11:11:46;;;;;;;16.27;13.13;;;;;;;6.15;90.20;99176.28;5092745;28;20550;-79
2022/01/08 11:14:44;;;;;;;9.07;4.15;;;;;;;6.28;88.35;99179.25;5092495;28;20287;-77
2022/01/08 11:17:06;;;;;;;6.93;3.72;;;;;;;6.51;84.82;99178.16;5092048;28;20197;-78
2022/01/08 11:19:35;;;;;;;5.95;3.70;;;;;;;6.49;85.91;99167.56;5091894;28;20288;-78
2022/01/08 11:22:02;;;;;;;5.63;3.25;;;;;;;6.61;84.49;99166.09;5092640;28;20204;-78
2022/01/08 11:24:31;;;;;;;4.80;3.80;;;;;;;6.45;85.59;99166.81;5092336;28;20736;-78
2022/01/08 11:26:59;;;;;;;5.97;4.13;;;;;;;6.44;86.19;99162.44;5109252;28;20208;-78
2022/01/08 11:29:28;;;;;;;7.75;3.50;;;;;;;6.25;86.15;99154.41;5100651;28;20197;-78
2022/01/08 11:31:59;;;;;;;8.80;4.18;;;;;;;6.21;86.38;99142.13;5092024;28;20185;-78
2022/01/08 11:34:29;;;;;;;6.28;3.10;;;;;;;6.07;88.16;99141.91;5091697;28;20274;-78
2022/01/08 11:36:57;;;;;;;7.03;3.90;;;;;;;6.15;88.91;99136.19;5091650;28;20197;-79
2022/01/08 11:39:28;;;;;;;4.80;3.80;;;;;;;6.10;89.42;99128.38;5092057;28;20304;-78
2022/01/08 11:41:56;;;;;;;5.22;3.78;;;;;;;6.16;88.21;99122.75;5092087;28;20197;-78
2022/01/08 11:44:24;;;;;;;5.65;3.75;;;;;;;6.14;89.00;99113.09;5092674;28;20208;-78
2022/01/08 11:46:52;;;;;;;5.35;3.42;;;;;;;6.13;88.35;99112.22;5093611;28;20224;-78
2022/01/08 11:49:19;;;;;;;4.65;3.75;;;;;;;6.18;86.17;99095.97;5093208;28;20305;-78
2022/01/08 11:51:47;;;;;;;5.10;3.70;;;;;;;6.26;85.81;99083.06;5093227;28;20196;-78
2022/01/08 11:54:14;;;;;;;10.35;3.42;;;;;;;6.27;86.31;99082.16;5093574;28;20182;-79